Time,TemperatureF,DewpointF,PressureIn,WindDirection,WindDirectionDegrees,WindSpeedMPH,WindSpeedGustMPH,Humidity,HourlyPrecipIn,Conditions,Clouds,dailyrainin,SoftwareType,DateUTC
2013-04-24 00:04:00,56.2,42.5,29.88,North,0,0.0,0.0,60,0.00,,,0.00,WUHU216HW,2013-04-24 07:04:00,
2013-04-24 00:10:00,56.0,42.3,29.88,North,0,0.0,0.0,60,0.00,,,0.00,WUHU216HW,2013-04-24 07:10:00,
2013-04-24 00:15:00,55.8,42.6,29.88,North,0,0.0,0.0,61,0.00,,,0.00,WUHU216HW,2013-04-24 07:15:00,
2013-04-24 00:20:00,55.8,42.6,29.88,North,0,0.0,0.0,61,0.00,,,0.00,WUHU216HW,2013-04-24 07:20:00,
2013-04-24 00:25:00,55.6,42.4,29.88,North,0,0.0,0.0,61,0.00,,,0.00,WUHU216HW,2013-04-24 07:25:00,
2013-04-24 00:30:00,55.4,42.2,29.88,North,0,0.0,0.0,61,0.00,,,0.00,WUHU216HW,2013-04-24 07:30:00,
2013-04-24 00:35:00,55.4,42.6,29.88,North,0,0.0,0.0,62,0.00,,,0.00,WUHU216HW,2013-04-24 07:35:00,
2013-04-24 00:40:00,55.1,42.3,29.88,North,0,0.0,0.0,62,0.00,,,0.00,WUHU216HW,2013-04-24 07:40:00,
2013-04-24 00:45:00,55.1,42.3,29.88,North,0,0.0,0.0,62,0.00,,,0.00,WUHU216HW,2013-04-24 07:45:00,
2013-04-24 00:50:00,54.9,42.1,29.88,North,0,0.0,0.0,62,0.00,,,0.00,WUHU216HW,2013-04-24 07:50:00,
2013-04-24 00:55:00,54.9,42.5,29.88,North,0,0.0,0.0,63,0.00,,,0.00,WUHU216HW,2013-04-24 07:55:00,
2013-04-24 01:00:00,54.7,42.3,29.88,North,0,0.0,0.0,63,0.00,,,0.00,WUHU216HW,2013-04-24 08:00:00,
2013-04-24 01:05:00,54.7,42.3,29.88,North,0,0.0,0.0,63,0.00,,,0.00,WUHU216HW,2013-04-24 08:05:00,
2013-04-24 01:10:00,54.5,42.2,29.88,North,0,0.0,0.0,63,0.00,,,0.00,WUHU216HW,2013-04-24 08:10:00,
2013-04-24 01:15:00,54.4,42.0,29.87,North,0,0.0,0.0,63,0.00,,,0.00,WUHU216HW,2013-04-24 08:15:00,
2013-04-24 01:20:00,54.4,42.4,29.87,North,0,0.0,0.0,64,0.00,,,0.00,WUHU216HW,2013-04-24 08:20:00,
2013-04-24 01:25:00,54.2,42.2,29.87,North,0,0.0,0.0,64,0.00,,,0.00,WUHU216HW,2013-04-24 08:25:00,
2013-04-24 01:30:00,54.2,42.2,29.87,North,0,0.0,0.0,64,0.00,,,0.00,WUHU216HW,2013-04-24 08:30:00,
2013-04-24 01:35:00,54.0,42.0,29.87,North,0,0.0,0.0,64,0.00,,,0.00,WUHU216HW,2013-04-24 08:35:00,
2013-04-24 01:40:00,54.0,42.0,29.86,North,0,0.0,0.0,64,0.00,,,0.00,WUHU216HW,2013-04-24 08:40:00,
2013-04-24 01:45:00,53.8,41.9,29.86,North,0,0.0,0.0,64,0.00,,,0.00,WUHU216HW,2013-04-24 08:45:00,
2013-04-24 01:50:00,53.8,42.3,29.86,North,0,0.0,0.0,65,0.00,,,0.00,WUHU216HW,2013-04-24 08:50:00,
2013-04-24 01:55:00,53.6,42.1,29.86,North,0,0.0,0.0,65,0.00,,,0.00,WUHU216HW,2013-04-24 08:55:00,
2013-04-24 02:01:00,53.6,42.1,29.86,North,0,0.0,0.0,65,0.00,,,0.00,WUHU216HW,2013-04-24 09:01:00,
2013-04-24 02:06:00,53.6,42.1,29.86,North,0,0.0,0.0,65,0.00,,,0.00,WUHU216HW,2013-04-24 09:06:00,
2013-04-24 02:11:00,53.5,42.4,29.86,North,0,0.0,0.0,66,0.00,,,0.00,WUHU216HW,2013-04-24 09:11:00,
2013-04-24 02:16:00,53.3,42.2,29.85,North,0,0.0,0.0,66,0.00,,,0.00,WUHU216HW,2013-04-24 09:16:00,
2013-04-24 02:21:00,53.3,42.2,29.85,North,0,0.0,0.0,66,0.00,,,0.00,WUHU216HW,2013-04-24 09:21:00,
2013-04-24 02:26:00,53.1,42.0,29.85,North,0,0.0,0.0,66,0.00,,,0.00,WUHU216HW,2013-04-24 09:26:00,
2013-04-24 02:31:00,52.9,41.9,29.85,North,0,0.0,0.0,66,0.00,,,0.00,WUHU216HW,2013-04-24 09:31:00,
2013-04-24 02:36:00,52.9,42.2,29.85,North,0,0.0,0.0,67,0.00,,,0.00,WUHU216HW,2013-04-24 09:36:00,
2013-04-24 02:41:00,52.9,42.2,29.85,North,0,0.0,0.0,67,0.00,,,0.00,WUHU216HW,2013-04-24 09:41:00,
2013-04-24 02:46:00,52.7,42.1,29.84,North,0,0.0,0.0,67,0.00,,,0.00,WUHU216HW,2013-04-24 09:46:00,
2013-04-24 02:51:00,52.6,42.0,29.84,North,0,0.0,0.0,67,0.00,,,0.00,WUHU216HW,2013-04-24 09:51:00,
2013-04-24 02:56:00,52.6,42.0,29.84,North,0,0.0,0.0,67,0.00,,,0.00,WUHU216HW,2013-04-24 09:56:00,
2013-04-24 03:01:00,52.4,41.8,29.84,North,0,0.0,0.0,67,0.00,,,0.00,WUHU216HW,2013-04-24 10:01:00,
2013-04-24 03:06:00,52.4,42.1,29.83,North,0,0.0,0.0,68,0.00,,,0.00,WUHU216HW,2013-04-24 10:06:00,
2013-04-24 03:11:00,52.2,41.9,29.83,North,0,0.0,0.0,68,0.00,,,0.00,WUHU216HW,2013-04-24 10:11:00,
2013-04-24 03:16:00,52.2,41.9,29.83,North,0,0.0,0.0,68,0.00,,,0.00,WUHU216HW,2013-04-24 10:16:00,
2013-04-24 03:21:00,52.2,41.9,29.83,North,0,0.0,0.0,68,0.00,,,0.00,WUHU216HW,2013-04-24 10:21:00,
2013-04-24 03:26:00,52.0,41.9,29.83,North,0,0.0,0.0,68,0.00,,,0.00,WUHU216HW,2013-04-24 10:26:00,
2013-04-24 03:31:00,51.8,41.7,29.83,North,0,0.0,0.0,68,0.00,,,0.00,WUHU216HW,2013-04-24 10:31:00,
2013-04-24 03:36:00,51.7,41.5,29.83,North,0,0.0,0.0,68,0.00,,,0.00,WUHU216HW,2013-04-24 10:36:00,
2013-04-24 03:42:00,51.5,41.3,29.83,North,0,0.0,0.0,68,0.00,,,0.00,WUHU216HW,2013-04-24 10:42:00,
2013-04-24 03:47:00,51.5,41.3,29.83,North,0,0.0,0.0,68,0.00,,,0.00,WUHU216HW,2013-04-24 10:47:00,
2013-04-24 03:52:00,51.5,41.3,29.83,North,0,0.0,0.0,68,0.00,,,0.00,WUHU216HW,2013-04-24 10:52:00,
2013-04-24 03:57:00,51.3,41.1,29.83,North,0,0.0,0.0,68,0.00,,,0.00,WUHU216HW,2013-04-24 10:57:00,
2013-04-24 04:02:00,51.1,41.0,29.82,North,0,0.0,0.0,68,0.00,,,0.00,WUHU216HW,2013-04-24 11:02:00,
2013-04-24 04:07:00,51.1,41.0,29.82,North,0,0.0,0.0,68,0.00,,,0.00,WUHU216HW,2013-04-24 11:07:00,
2013-04-24 04:12:00,51.1,41.0,29.82,North,0,0.0,0.0,68,0.00,,,0.00,WUHU216HW,2013-04-24 11:12:00,
2013-04-24 04:17:00,50.9,41.2,29.83,North,0,0.0,0.0,69,0.00,,,0.00,WUHU216HW,2013-04-24 11:17:00,
2013-04-24 04:22:00,50.9,41.2,29.83,North,0,0.0,0.0,69,0.00,,,0.00,WUHU216HW,2013-04-24 11:22:00,
2013-04-24 04:27:00,50.9,41.2,29.82,North,0,0.0,0.0,69,0.00,,,0.00,WUHU216HW,2013-04-24 11:27:00,
2013-04-24 04:32:00,50.8,41.1,29.82,North,0,0.0,0.0,69,0.00,,,0.00,WUHU216HW,2013-04-24 11:32:00,
2013-04-24 04:37:00,50.8,41.1,29.82,North,0,0.0,0.0,69,0.00,,,0.00,WUHU216HW,2013-04-24 11:37:00,
2013-04-24 04:42:00,50.8,41.1,29.82,North,0,0.0,0.0,69,0.00,,,0.00,WUHU216HW,2013-04-24 11:42:00,
2013-04-24 04:47:00,50.8,41.4,29.82,North,0,0.0,0.0,70,0.00,,,0.00,WUHU216HW,2013-04-24 11:47:00,
2013-04-24 04:52:00,50.6,41.2,29.82,North,0,0.0,0.0,70,0.00,,,0.00,WUHU216HW,2013-04-24 11:52:00,
2013-04-24 04:57:00,50.8,41.4,29.82,North,0,0.0,0.0,70,0.00,,,0.00,WUHU216HW,2013-04-24 11:57:00,
2013-04-24 05:02:00,50.8,41.8,29.82,North,0,0.0,0.0,71,0.00,,,0.00,WUHU216HW,2013-04-24 12:02:00,
2013-04-24 05:07:00,50.8,41.8,29.82,North,0,0.0,0.0,71,0.00,,,0.00,WUHU216HW,2013-04-24 12:07:00,
2013-04-24 05:12:00,50.8,42.1,29.82,North,0,0.0,0.0,72,0.00,,,0.00,WUHU216HW,2013-04-24 12:12:00,
2013-04-24 05:17:00,50.9,42.3,29.82,North,0,0.0,0.0,72,0.00,,,0.00,WUHU216HW,2013-04-24 12:17:00,
2013-04-24 05:23:00,50.9,42.3,29.82,North,0,0.0,0.0,72,0.00,,,0.00,WUHU216HW,2013-04-24 12:23:00,
2013-04-24 05:28:00,51.1,42.8,29.82,North,0,0.0,0.0,73,0.00,,,0.00,WUHU216HW,2013-04-24 12:28:00,
2013-04-24 05:33:00,51.3,42.9,29.82,North,0,0.0,0.0,73,0.00,,,0.00,WUHU216HW,2013-04-24 12:33:00,
2013-04-24 05:38:00,51.3,42.9,29.83,North,0,0.0,0.0,73,0.00,,,0.00,WUHU216HW,2013-04-24 12:38:00,
2013-04-24 05:43:00,51.5,43.1,29.83,North,0,0.0,0.0,73,0.00,,,0.00,WUHU216HW,2013-04-24 12:43:00,
2013-04-24 05:48:00,51.5,43.5,29.83,North,0,0.0,0.0,74,0.00,,,0.00,WUHU216HW,2013-04-24 12:48:00,
2013-04-24 05:53:00,51.7,44.0,29.83,North,0,0.0,0.0,75,0.00,,,0.00,WUHU216HW,2013-04-24 12:53:00,
2013-04-24 05:58:00,51.8,44.2,29.82,North,0,0.0,0.0,75,0.00,,,0.00,WUHU216HW,2013-04-24 12:58:00,
2013-04-24 06:03:00,52.0,44.4,29.82,North,0,0.0,0.0,75,0.00,,,0.00,WUHU216HW,2013-04-24 13:03:00,
2013-04-24 06:08:00,52.2,44.6,29.82,North,0,0.0,0.0,75,0.00,,,0.00,WUHU216HW,2013-04-24 13:08:00,
2013-04-24 06:13:00,52.2,44.9,29.82,North,0,0.0,0.0,76,0.00,,,0.00,WUHU216HW,2013-04-24 13:13:00,
2013-04-24 06:18:00,52.2,44.6,29.82,North,0,0.0,0.0,75,0.00,,,0.00,WUHU216HW,2013-04-24 13:18:00,
2013-04-24 06:23:00,52.2,44.9,29.82,North,0,0.0,0.0,76,0.00,,,0.00,WUHU216HW,2013-04-24 13:23:00,
2013-04-24 06:28:00,52.2,44.9,29.82,North,0,0.0,0.0,76,0.00,,,0.00,WUHU216HW,2013-04-24 13:28:00,
2013-04-24 06:33:00,52.2,44.9,29.83,North,0,0.0,0.0,76,0.00,,,0.00,WUHU216HW,2013-04-24 13:33:00,
2013-04-24 06:38:00,52.2,44.9,29.83,North,0,0.0,0.0,76,0.00,,,0.00,WUHU216HW,2013-04-24 13:38:00,
2013-04-24 06:43:00,52.2,44.9,29.83,North,0,0.0,0.0,76,0.00,,,0.00,WUHU216HW,2013-04-24 13:43:00,
2013-04-24 06:48:00,52.2,44.9,29.83,North,0,0.0,0.0,76,0.00,,,0.00,WUHU216HW,2013-04-24 13:48:00,
2013-04-24 06:53:00,52.2,44.9,29.83,North,0,0.0,0.0,76,0.00,,,0.00,WUHU216HW,2013-04-24 13:53:00,
2013-04-24 06:58:00,52.2,44.9,29.83,North,0,0.0,0.0,76,0.00,,,0.00,WUHU216HW,2013-04-24 13:58:00,
2013-04-24 07:04:00,52.2,44.9,29.84,North,0,0.0,0.0,76,0.00,,,0.00,WUHU216HW,2013-04-24 14:04:00,
2013-04-24 07:09:00,52.4,45.4,29.84,North,0,0.0,0.0,77,0.00,,,0.00,WUHU216HW,2013-04-24 14:09:00,
2013-04-24 07:14:00,52.4,45.4,29.84,North,0,0.0,0.0,77,0.00,,,0.00,WUHU216HW,2013-04-24 14:14:00,
2013-04-24 07:19:00,52.6,45.5,29.84,North,0,0.0,0.0,77,0.00,,,0.00,WUHU216HW,2013-04-24 14:19:00,
2013-04-24 07:24:00,52.7,45.7,29.84,North,0,0.0,0.0,77,0.00,,,0.00,WUHU216HW,2013-04-24 14:24:00,
2013-04-24 07:29:00,52.7,45.7,29.85,North,0,0.0,0.0,77,0.00,,,0.00,WUHU216HW,2013-04-24 14:29:00,
2013-04-24 07:34:00,52.9,45.9,29.85,North,0,0.0,0.0,77,0.00,,,0.00,WUHU216HW,2013-04-24 14:34:00,
2013-04-24 07:39:00,52.9,45.9,29.85,North,0,0.0,0.0,77,0.00,,,0.00,WUHU216HW,2013-04-24 14:39:00,
2013-04-24 07:44:00,53.1,46.1,29.85,North,0,0.0,0.0,77,0.00,,,0.00,WUHU216HW,2013-04-24 14:44:00,
2013-04-24 07:49:00,53.3,46.3,29.85,North,0,0.0,0.0,77,0.00,,,0.00,WUHU216HW,2013-04-24 14:49:00,
2013-04-24 07:54:00,53.3,45.9,29.85,North,0,0.0,0.0,76,0.00,,,0.00,WUHU216HW,2013-04-24 14:54:00,
2013-04-24 07:59:00,53.6,46.3,29.85,North,0,0.0,0.0,76,0.00,,,0.00,WUHU216HW,2013-04-24 14:59:00,
2013-04-24 08:04:00,54.0,47.0,29.85,North,0,0.0,0.0,77,0.00,,,0.00,WUHU216HW,2013-04-24 15:04:00,
2013-04-24 08:09:00,54.5,47.4,29.85,North,0,0.0,0.0,77,0.00,,,0.00,WUHU216HW,2013-04-24 15:09:00,
2013-04-24 08:14:00,55.1,48.0,29.85,North,0,0.0,0.0,77,0.00,,,0.00,WUHU216HW,2013-04-24 15:14:00,
2013-04-24 08:19:00,55.4,48.3,29.85,North,0,0.0,0.0,77,0.00,,,0.00,WUHU216HW,2013-04-24 15:19:00,
2013-04-24 08:24:00,55.8,48.3,29.85,North,0,0.0,0.0,76,0.00,,,0.00,WUHU216HW,2013-04-24 15:24:00,
2013-04-24 08:29:00,56.2,48.3,29.85,North,0,0.0,0.0,75,0.00,,,0.00,WUHU216HW,2013-04-24 15:29:00,
2013-04-24 08:35:00,56.5,48.6,29.85,North,0,0.0,0.0,75,0.00,,,0.00,WUHU216HW,2013-04-24 15:35:00,
2013-04-24 08:40:00,56.9,49.0,29.86,North,0,0.0,0.0,75,0.00,,,0.00,WUHU216HW,2013-04-24 15:40:00,
2013-04-24 08:45:00,57.2,49.0,29.86,North,0,0.0,0.0,74,0.00,,,0.00,WUHU216HW,2013-04-24 15:45:00,
2013-04-24 08:50:00,57.8,49.5,29.86,North,0,0.0,0.0,74,0.00,,,0.00,WUHU216HW,2013-04-24 15:50:00,
2013-04-24 08:55:00,58.1,49.5,29.86,North,0,0.0,0.0,73,0.00,,,0.00,WUHU216HW,2013-04-24 15:55:00,
2013-04-24 09:00:00,58.7,49.7,29.86,North,0,0.0,0.0,72,0.00,,,0.00,WUHU216HW,2013-04-24 16:00:00,
2013-04-24 09:05:00,59.0,49.7,29.86,North,0,0.0,0.0,71,0.00,,,0.00,WUHU216HW,2013-04-24 16:05:00,
2013-04-24 09:10:00,59.6,50.2,29.86,North,0,0.0,0.0,71,0.00,,,0.00,WUHU216HW,2013-04-24 16:10:00,
2013-04-24 09:15:00,60.1,50.4,29.86,North,0,0.0,0.0,70,0.00,,,0.00,WUHU216HW,2013-04-24 16:15:00,
2013-04-24 09:20:00,60.8,50.7,29.86,North,0,0.0,0.0,69,0.00,,,0.00,WUHU216HW,2013-04-24 16:20:00,
2013-04-24 09:25:00,61.6,51.4,29.86,North,0,0.0,0.0,69,0.00,,,0.00,WUHU216HW,2013-04-24 16:25:00,
2013-04-24 09:30:00,62.5,52.2,29.86,North,0,0.0,0.0,69,0.00,,,0.00,WUHU216HW,2013-04-24 16:30:00,
2013-04-24 09:35:00,63.2,52.0,29.86,North,0,0.0,0.0,67,0.00,,,0.00,WUHU216HW,2013-04-24 16:35:00,
2013-04-24 09:40:00,63.7,51.7,29.86,North,0,0.0,0.0,65,0.00,,,0.00,WUHU216HW,2013-04-24 16:40:00,
2013-04-24 09:45:00,64.4,52.4,29.86,North,0,0.0,0.0,65,0.00,,,0.00,WUHU216HW,2013-04-24 16:45:00,
2013-04-24 09:50:00,65.0,52.5,29.86,North,0,0.0,0.0,64,0.00,,,0.00,WUHU216HW,2013-04-24 16:50:00,
2013-04-24 09:55:00,65.9,52.9,29.86,North,0,0.0,0.0,63,0.00,,,0.00,WUHU216HW,2013-04-24 16:55:00,
2013-04-24 10:00:00,66.6,52.7,29.86,North,0,0.0,0.0,61,0.00,,,0.00,WUHU216HW,2013-04-24 17:00:00,
2013-04-24 10:05:00,66.6,52.7,29.86,North,0,0.0,0.0,61,0.00,,,0.00,WUHU216HW,2013-04-24 17:05:00,
2013-04-24 10:10:00,67.1,52.8,29.86,North,0,0.0,0.0,60,0.00,,,0.00,WUHU216HW,2013-04-24 17:10:00,
2013-04-24 10:15:00,67.3,53.0,29.86,North,0,0.0,0.0,60,0.00,,,0.00,WUHU216HW,2013-04-24 17:15:00,
2013-04-24 10:21:00,67.7,52.8,29.86,North,0,0.0,0.0,59,0.00,,,0.00,WUHU216HW,2013-04-24 17:21:00,
2013-04-24 10:26:00,67.5,52.2,29.86,North,0,0.0,0.0,58,0.00,,,0.00,WUHU216HW,2013-04-24 17:26:00,
2013-04-24 10:31:00,67.1,51.8,29.86,North,0,0.0,0.0,58,0.00,,,0.00,WUHU216HW,2013-04-24 17:31:00,
2013-04-24 10:36:00,67.0,51.7,29.86,North,0,0.0,0.0,58,0.00,,,0.00,WUHU216HW,2013-04-24 17:36:00,
2013-04-24 10:41:00,66.8,51.6,29.86,North,0,0.0,0.0,58,0.00,,,0.00,WUHU216HW,2013-04-24 17:41:00,
2013-04-24 10:46:00,66.6,51.8,29.86,North,0,0.0,0.0,59,0.00,,,0.00,WUHU216HW,2013-04-24 17:46:00,
2013-04-24 10:51:00,66.6,51.8,29.86,North,0,0.0,0.0,59,0.00,,,0.00,WUHU216HW,2013-04-24 17:51:00,
2013-04-24 10:56:00,66.6,51.8,29.86,North,0,0.0,0.0,59,0.00,,,0.00,WUHU216HW,2013-04-24 17:56:00,
2013-04-24 11:01:00,66.6,52.4,29.86,North,0,0.0,0.0,60,0.00,,,0.00,WUHU216HW,2013-04-24 18:01:00,
2013-04-24 11:06:00,66.6,52.4,29.86,North,0,0.0,0.0,60,0.00,,,0.00,WUHU216HW,2013-04-24 18:06:00,
2013-04-24 11:11:00,66.4,53.0,29.86,North,0,0.0,0.0,62,0.00,,,0.00,WUHU216HW,2013-04-24 18:11:00,
2013-04-24 11:16:00,66.2,52.8,29.86,North,0,0.0,0.0,62,0.00,,,0.00,WUHU216HW,2013-04-24 18:16:00,
2013-04-24 11:21:00,66.2,52.8,29.86,North,0,0.0,0.0,62,0.00,,,0.00,WUHU216HW,2013-04-24 18:21:00,
2013-04-24 11:26:00,65.9,52.5,29.86,North,0,0.0,0.0,62,0.00,,,0.00,WUHU216HW,2013-04-24 18:26:00,
2013-04-24 11:31:00,65.9,52.9,29.86,North,0,0.0,0.0,63,0.00,,,0.00,WUHU216HW,2013-04-24 18:31:00,
2013-04-24 11:36:00,65.9,52.5,29.86,North,0,0.0,0.0,62,0.00,,,0.00,WUHU216HW,2013-04-24 18:36:00,
2013-04-24 11:41:00,65.7,52.3,29.86,North,0,0.0,0.0,62,0.00,,,0.00,WUHU216HW,2013-04-24 18:41:00,
2013-04-24 11:46:00,65.5,52.1,29.86,North,0,0.0,0.0,62,0.00,,,0.00,WUHU216HW,2013-04-24 18:46:00,
2013-04-24 11:51:00,65.7,51.9,29.86,North,0,0.0,0.0,61,0.00,,,0.00,WUHU216HW,2013-04-24 18:51:00,
2013-04-24 11:57:00,65.5,52.1,29.86,North,0,0.0,0.0,62,0.00,,,0.00,WUHU216HW,2013-04-24 18:57:00,
2013-04-24 12:02:00,65.5,52.1,29.86,North,0,0.0,0.0,62,0.00,,,0.00,WUHU216HW,2013-04-24 19:02:00,
2013-04-24 12:07:00,65.5,51.8,29.86,North,0,0.0,0.0,61,0.00,,,0.00,WUHU216HW,2013-04-24 19:07:00,
2013-04-24 12:12:00,65.5,51.3,29.86,North,0,0.0,0.0,60,0.00,,,0.00,WUHU216HW,2013-04-24 19:12:00,
2013-04-24 12:17:00,65.7,51.5,29.86,North,0,0.0,0.0,60,0.00,,,0.00,WUHU216HW,2013-04-24 19:17:00,
2013-04-24 12:22:00,65.9,51.2,29.86,North,0,0.0,0.0,59,0.00,,,0.00,WUHU216HW,2013-04-24 19:22:00,
2013-04-24 12:27:00,65.9,50.7,29.86,North,0,0.0,0.0,58,0.00,,,0.00,WUHU216HW,2013-04-24 19:27:00,
2013-04-24 12:32:00,65.9,50.2,29.86,North,0,0.0,0.0,57,0.00,,,0.00,WUHU216HW,2013-04-24 19:32:00,
2013-04-24 12:37:00,65.7,50.5,29.86,North,0,0.0,0.0,58,0.00,,,0.00,WUHU216HW,2013-04-24 19:37:00,
2013-04-24 12:42:00,65.7,50.5,29.85,North,0,0.0,0.0,58,0.00,,,0.00,WUHU216HW,2013-04-24 19:42:00,
2013-04-24 12:47:00,65.7,50.5,29.85,North,0,0.0,0.0,58,0.00,,,0.00,WUHU216HW,2013-04-24 19:47:00,
2013-04-24 12:52:00,65.9,50.2,29.85,North,0,0.0,0.0,57,0.00,,,0.00,WUHU216HW,2013-04-24 19:52:00,
2013-04-24 12:57:00,65.9,50.2,29.85,North,0,0.0,0.0,57,0.00,,,0.00,WUHU216HW,2013-04-24 19:57:00,
2013-04-24 13:02:00,65.9,50.2,29.85,North,0,0.0,0.0,57,0.00,,,0.00,WUHU216HW,2013-04-24 20:02:00,
2013-04-24 13:07:00,65.9,50.2,29.85,North,0,0.0,0.0,57,0.00,,,0.00,WUHU216HW,2013-04-24 20:07:00,
2013-04-24 13:12:00,65.9,50.2,29.85,North,0,0.0,0.0,57,0.00,,,0.00,WUHU216HW,2013-04-24 20:12:00,
2013-04-24 13:17:00,65.9,50.2,29.85,North,0,0.0,0.0,57,0.00,,,0.00,WUHU216HW,2013-04-24 20:17:00,
2013-04-24 13:22:00,66.1,50.4,29.85,North,0,0.0,0.0,57,0.00,,,0.00,WUHU216HW,2013-04-24 20:22:00,
2013-04-24 13:27:00,66.2,50.6,29.85,North,0,0.0,0.0,57,0.00,,,0.00,WUHU216HW,2013-04-24 20:27:00,
2013-04-24 13:32:00,66.4,50.2,29.85,North,0,0.0,0.0,56,0.00,,,0.00,WUHU216HW,2013-04-24 20:32:00,
2013-04-24 13:37:00,66.4,50.8,29.85,North,0,0.0,0.0,57,0.00,,,0.00,WUHU216HW,2013-04-24 20:37:00,
2013-04-24 13:43:00,66.6,50.9,29.85,North,0,0.0,0.0,57,0.00,,,0.00,WUHU216HW,2013-04-24 20:43:00,
2013-04-24 13:48:00,66.8,51.0,29.84,North,0,0.0,0.0,57,0.00,,,0.00,WUHU216HW,2013-04-24 20:48:00,
2013-04-24 13:53:00,67.0,51.2,29.84,North,0,0.0,0.0,57,0.00,,,0.00,WUHU216HW,2013-04-24 20:53:00,
2013-04-24 13:58:00,67.1,51.4,29.84,North,0,0.0,0.0,57,0.00,,,0.00,WUHU216HW,2013-04-24 20:58:00,
2013-04-24 14:03:00,67.3,51.0,29.84,North,0,0.0,0.0,56,0.00,,,0.00,WUHU216HW,2013-04-24 21:03:00,
2013-04-24 14:08:00,67.3,51.0,29.84,North,0,0.0,0.0,56,0.00,,,0.00,WUHU216HW,2013-04-24 21:08:00,
2013-04-24 14:13:00,67.5,51.2,29.84,North,0,0.0,0.0,56,0.00,,,0.00,WUHU216HW,2013-04-24 21:13:00,
2013-04-24 14:18:00,67.7,51.4,29.83,North,0,0.0,0.0,56,0.00,,,0.00,WUHU216HW,2013-04-24 21:18:00,
2013-04-24 14:23:00,67.7,50.9,29.83,North,0,0.0,0.0,55,0.00,,,0.00,WUHU216HW,2013-04-24 21:23:00,
2013-04-24 14:28:00,67.7,51.4,29.84,North,0,0.0,0.0,56,0.00,,,0.00,WUHU216HW,2013-04-24 21:28:00,
2013-04-24 14:33:00,67.9,51.6,29.84,North,0,0.0,0.0,56,0.00,,,0.00,WUHU216HW,2013-04-24 21:33:00,
2013-04-24 14:38:00,67.7,51.4,29.84,North,0,0.0,0.0,56,0.00,,,0.00,WUHU216HW,2013-04-24 21:38:00,
2013-04-24 14:43:00,67.7,51.4,29.84,North,0,0.0,0.0,56,0.00,,,0.00,WUHU216HW,2013-04-24 21:43:00,
2013-04-24 14:48:00,67.9,51.6,29.83,North,0,0.0,0.0,56,0.00,,,0.00,WUHU216HW,2013-04-24 21:48:00,
2013-04-24 14:53:00,67.9,51.6,29.83,North,0,0.0,0.0,56,0.00,,,0.00,WUHU216HW,2013-04-24 21:53:00,
2013-04-24 14:58:00,67.9,51.6,29.83,North,0,0.0,0.0,56,0.00,,,0.00,WUHU216HW,2013-04-24 21:58:00,
2013-04-24 15:03:00,67.9,51.6,29.83,North,0,0.0,0.0,56,0.00,,,0.00,WUHU216HW,2013-04-24 22:03:00,
2013-04-24 15:08:00,67.9,51.6,29.83,North,0,0.0,0.0,56,0.00,,,0.00,WUHU216HW,2013-04-24 22:08:00,
2013-04-24 15:13:00,67.9,51.6,29.83,North,0,0.0,0.0,56,0.00,,,0.00,WUHU216HW,2013-04-24 22:13:00,
2013-04-24 15:18:00,67.9,51.6,29.83,North,0,0.0,0.0,56,0.00,,,0.00,WUHU216HW,2013-04-24 22:18:00,
2013-04-24 15:24:00,68.0,51.7,29.83,North,0,0.0,0.0,56,0.00,,,0.00,WUHU216HW,2013-04-24 22:24:00,
2013-04-24 15:29:00,68.2,51.8,29.83,North,0,0.0,0.0,56,0.00,,,0.00,WUHU216HW,2013-04-24 22:29:00,
2013-04-24 15:34:00,68.4,52.0,29.83,North,0,0.0,0.0,56,0.00,,,0.00,WUHU216HW,2013-04-24 22:34:00,
2013-04-24 15:39:00,68.4,52.0,29.82,North,0,0.0,0.0,56,0.00,,,0.00,WUHU216HW,2013-04-24 22:39:00,
2013-04-24 15:44:00,68.4,52.0,29.82,North,0,0.0,0.0,56,0.00,,,0.00,WUHU216HW,2013-04-24 22:44:00,
2013-04-24 15:49:00,68.6,52.2,29.82,North,0,0.0,0.0,56,0.00,,,0.00,WUHU216HW,2013-04-24 22:49:00,
2013-04-24 15:54:00,68.6,52.2,29.82,North,0,0.0,0.0,56,0.00,,,0.00,WUHU216HW,2013-04-24 22:54:00,
2013-04-24 15:59:00,68.6,52.2,29.82,North,0,0.0,0.0,56,0.00,,,0.00,WUHU216HW,2013-04-24 22:59:00,
2013-04-24 16:04:00,68.8,52.4,29.82,North,0,0.0,0.0,56,0.00,,,0.00,WUHU216HW,2013-04-24 23:04:00,
2013-04-24 16:09:00,68.8,52.4,29.81,North,0,0.0,0.0,56,0.00,,,0.00,WUHU216HW,2013-04-24 23:09:00,
2013-04-24 16:14:00,68.8,52.4,29.81,North,0,0.0,0.0,56,0.00,,,0.00,WUHU216HW,2013-04-24 23:14:00,
2013-04-24 16:19:00,68.9,52.6,29.81,North,0,0.0,0.0,56,0.00,,,0.00,WUHU216HW,2013-04-24 23:19:00,
2013-04-24 16:24:00,68.9,52.6,29.81,North,0,0.0,0.0,56,0.00,,,0.00,WUHU216HW,2013-04-24 23:24:00,
2013-04-24 16:29:00,68.9,52.6,29.81,North,0,0.0,0.0,56,0.00,,,0.00,WUHU216HW,2013-04-24 23:29:00,
2013-04-24 16:34:00,68.9,52.6,29.81,North,0,0.0,0.0,56,0.00,,,0.00,WUHU216HW,2013-04-24 23:34:00,
2013-04-24 16:39:00,68.9,52.6,29.81,North,0,0.0,0.0,56,0.00,,,0.00,WUHU216HW,2013-04-24 23:39:00,
2013-04-24 16:44:00,68.9,52.0,29.81,North,0,0.0,0.0,55,0.00,,,0.00,WUHU216HW,2013-04-24 23:44:00,
2013-04-24 16:49:00,68.8,51.9,29.81,North,0,0.0,0.0,55,0.00,,,0.00,WUHU216HW,2013-04-24 23:49:00,
2013-04-24 16:54:00,68.9,52.0,29.81,North,0,0.0,0.0,55,0.00,,,0.00,WUHU216HW,2013-04-24 23:54:00,
2013-04-24 16:59:00,68.9,52.6,29.81,North,0,0.0,0.0,56,0.00,,,0.00,WUHU216HW,2013-04-24 23:59:00,
2013-04-24 17:05:00,68.9,52.0,29.82,North,0,0.0,0.0,55,0.00,,,0.00,WUHU216HW,2013-04-25 00:05:00,
2013-04-24 17:10:00,68.9,52.0,29.82,North,0,0.0,0.0,55,0.00,,,0.00,WUHU216HW,2013-04-25 00:10:00,
2013-04-24 17:15:00,68.8,51.9,29.82,North,0,0.0,0.0,55,0.00,,,0.00,WUHU216HW,2013-04-25 00:15:00,
2013-04-24 17:20:00,68.8,51.9,29.82,North,0,0.0,0.0,55,0.00,,,0.00,WUHU216HW,2013-04-25 00:20:00,
2013-04-24 17:25:00,68.8,51.4,29.82,North,0,0.0,0.0,54,0.00,,,0.00,WUHU216HW,2013-04-25 00:25:00,
2013-04-24 17:30:00,68.8,51.4,29.82,North,0,0.0,0.0,54,0.00,,,0.00,WUHU216HW,2013-04-25 00:30:00,
2013-04-24 17:35:00,68.8,51.4,29.82,North,0,0.0,0.0,54,0.00,,,0.00,WUHU216HW,2013-04-25 00:35:00,
2013-04-24 17:40:00,68.6,51.2,29.82,North,0,0.0,0.0,54,0.00,,,0.00,WUHU216HW,2013-04-25 00:40:00,
2013-04-24 17:45:00,68.4,51.0,29.83,North,0,0.0,0.0,54,0.00,,,0.00,WUHU216HW,2013-04-25 00:45:00,
2013-04-24 17:50:00,68.4,51.0,29.83,North,0,0.0,0.0,54,0.00,,,0.00,WUHU216HW,2013-04-25 00:50:00,
2013-04-24 17:55:00,68.2,50.9,29.83,North,0,0.0,0.0,54,0.00,,,0.00,WUHU216HW,2013-04-25 00:55:00,
2013-04-24 18:00:00,68.0,51.2,29.83,North,0,0.0,0.0,55,0.00,,,0.00,WUHU216HW,2013-04-25 01:00:00,
2013-04-24 18:05:00,68.0,51.2,29.83,North,0,0.0,0.0,55,0.00,,,0.00,WUHU216HW,2013-04-25 01:05:00,
2013-04-24 18:10:00,67.9,51.0,29.83,North,0,0.0,0.0,55,0.00,,,0.00,WUHU216HW,2013-04-25 01:10:00,
2013-04-24 18:15:00,67.9,51.0,29.83,North,0,0.0,0.0,55,0.00,,,0.00,WUHU216HW,2013-04-25 01:15:00,
2013-04-24 18:20:00,67.5,50.8,29.83,North,0,0.0,0.0,55,0.00,,,0.00,WUHU216HW,2013-04-25 01:20:00,
2013-04-24 18:25:00,67.3,50.6,29.83,North,0,0.0,0.0,55,0.00,,,0.00,WUHU216HW,2013-04-25 01:25:00,
2013-04-24 18:30:00,67.1,50.4,29.83,North,0,0.0,0.0,55,0.00,,,0.00,WUHU216HW,2013-04-25 01:30:00,
2013-04-24 18:35:00,67.0,50.2,29.84,North,0,0.0,0.0,55,0.00,,,0.00,WUHU216HW,2013-04-25 01:35:00,
2013-04-24 18:40:00,66.8,50.0,29.84,North,0,0.0,0.0,55,0.00,,,0.00,WUHU216HW,2013-04-25 01:40:00,
2013-04-24 18:45:00,66.6,50.0,29.84,North,0,0.0,0.0,55,0.00,,,0.00,WUHU216HW,2013-04-25 01:45:00,
2013-04-24 18:51:00,66.4,49.8,29.84,North,0,0.0,0.0,55,0.00,,,0.00,WUHU216HW,2013-04-25 01:51:00,
2013-04-24 18:56:00,66.2,49.6,29.84,North,0,0.0,0.0,55,0.00,,,0.00,WUHU216HW,2013-04-25 01:56:00,
2013-04-24 19:01:00,66.2,50.0,29.84,North,0,0.0,0.0,56,0.00,,,0.00,WUHU216HW,2013-04-25 02:01:00,
2013-04-24 19:06:00,65.9,49.7,29.85,North,0,0.0,0.0,56,0.00,,,0.00,WUHU216HW,2013-04-25 02:06:00,
2013-04-24 19:11:00,65.7,49.5,29.85,North,0,0.0,0.0,56,0.00,,,0.00,WUHU216HW,2013-04-25 02:11:00,
2013-04-24 19:16:00,65.5,49.9,29.85,North,0,0.0,0.0,57,0.00,,,0.00,WUHU216HW,2013-04-25 02:16:00,
2013-04-24 19:21:00,65.3,49.7,29.85,North,0,0.0,0.0,57,0.00,,,0.00,WUHU216HW,2013-04-25 02:21:00,
2013-04-24 19:26:00,65.2,49.5,29.85,North,0,0.0,0.0,57,0.00,,,0.00,WUHU216HW,2013-04-25 02:26:00,
2013-04-24 19:31:00,64.8,49.6,29.85,North,0,0.0,0.0,58,0.00,,,0.00,WUHU216HW,2013-04-25 02:31:00,
2013-04-24 19:36:00,64.6,49.4,29.85,North,0,0.0,0.0,58,0.00,,,0.00,WUHU216HW,2013-04-25 02:36:00,
2013-04-24 19:41:00,64.4,49.2,29.85,North,0,0.0,0.0,58,0.00,,,0.00,WUHU216HW,2013-04-25 02:41:00,
2013-04-24 19:46:00,64.1,49.0,29.86,North,0,0.0,0.0,58,0.00,,,0.00,WUHU216HW,2013-04-25 02:46:00,
2013-04-24 19:51:00,63.9,48.8,29.86,North,0,0.0,0.0,58,0.00,,,0.00,WUHU216HW,2013-04-25 02:51:00,
2013-04-24 19:56:00,63.7,48.6,29.86,North,0,0.0,0.0,58,0.00,,,0.00,WUHU216HW,2013-04-25 02:56:00,
2013-04-24 20:01:00,63.4,48.8,29.86,North,0,0.0,0.0,59,0.00,,,0.00,WUHU216HW,2013-04-25 03:01:00,
2013-04-24 20:06:00,63.2,48.6,29.86,North,0,0.0,0.0,59,0.00,,,0.00,WUHU216HW,2013-04-25 03:06:00,
2013-04-24 20:11:00,63.0,48.4,29.86,North,0,0.0,0.0,59,0.00,,,0.00,WUHU216HW,2013-04-25 03:11:00,
2013-04-24 20:16:00,62.6,48.2,29.86,North,0,0.0,0.0,59,0.00,,,0.00,WUHU216HW,2013-04-25 03:16:00,
2013-04-24 20:21:00,62.3,48.2,29.87,North,0,0.0,0.0,60,0.00,,,0.00,WUHU216HW,2013-04-25 03:21:00,
2013-04-24 20:26:00,62.1,48.2,29.87,North,0,0.0,0.0,60,0.00,,,0.00,WUHU216HW,2013-04-25 03:26:00,
2013-04-24 20:31:00,61.9,48.0,29.87,North,0,0.0,0.0,60,0.00,,,0.00,WUHU216HW,2013-04-25 03:31:00,
2013-04-24 20:37:00,61.6,48.1,29.88,North,0,0.0,0.0,61,0.00,,,0.00,WUHU216HW,2013-04-25 03:37:00,
2013-04-24 20:42:00,61.2,47.7,29.88,North,0,0.0,0.0,61,0.00,,,0.00,WUHU216HW,2013-04-25 03:42:00,
2013-04-24 20:47:00,61.0,47.5,29.88,North,0,0.0,0.0,61,0.00,,,0.00,WUHU216HW,2013-04-25 03:47:00,
2013-04-24 20:52:00,60.8,47.8,29.88,North,0,0.0,0.0,62,0.00,,,0.00,WUHU216HW,2013-04-25 03:52:00,
2013-04-24 20:57:00,60.7,47.6,29.89,North,0,0.0,0.0,62,0.00,,,0.00,WUHU216HW,2013-04-25 03:57:00,
2013-04-24 21:01:00,60.5,47.4,29.89,North,0,0.0,0.0,62,0.00,,,0.00,WUHU216HW,2013-04-25 04:01:00,
2013-04-24 21:02:00,60.5,47.4,29.89,North,0,0.0,0.0,62,0.00,,,0.00,WUHU216HW,2013-04-25 04:02:00,
2013-04-24 21:07:00,60.1,47.5,29.89,North,0,0.0,0.0,63,0.00,,,0.00,WUHU216HW,2013-04-25 04:07:00,
2013-04-24 21:12:00,59.9,46.9,29.89,North,0,0.0,0.0,62,0.00,,,0.00,WUHU216HW,2013-04-25 04:12:00,
2013-04-24 21:17:00,59.8,46.7,29.89,North,0,0.0,0.0,62,0.00,,,0.00,WUHU216HW,2013-04-25 04:17:00,
2013-04-24 21:22:00,59.4,46.8,29.90,North,0,0.0,0.0,63,0.00,,,0.00,WUHU216HW,2013-04-25 04:22:00,
2013-04-24 21:27:00,59.2,46.6,29.90,North,0,0.0,0.0,63,0.00,,,0.00,WUHU216HW,2013-04-25 04:27:00,
2013-04-24 21:32:00,59.0,46.5,29.91,North,0,0.0,0.0,63,0.00,,,0.00,WUHU216HW,2013-04-25 04:32:00,
2013-04-24 21:37:00,58.9,46.7,29.91,North,0,0.0,0.0,64,0.00,,,0.00,WUHU216HW,2013-04-25 04:37:00,
2013-04-24 21:42:00,58.7,46.5,29.91,North,0,0.0,0.0,64,0.00,,,0.00,WUHU216HW,2013-04-25 04:42:00,
2013-04-24 21:47:00,58.5,46.4,29.91,North,0,0.0,0.0,64,0.00,,,0.00,WUHU216HW,2013-04-25 04:47:00,
2013-04-24 21:52:00,58.3,46.2,29.91,North,0,0.0,0.0,64,0.00,,,0.00,WUHU216HW,2013-04-25 04:52:00,
2013-04-24 21:57:00,58.1,46.0,29.91,North,0,0.0,0.0,64,0.00,,,0.00,WUHU216HW,2013-04-25 04:57:00,
2013-04-24 22:02:00,58.0,46.3,29.91,North,0,0.0,0.0,65,0.00,,,0.00,WUHU216HW,2013-04-25 05:02:00,
2013-04-24 22:07:00,57.8,46.1,29.91,North,0,0.0,0.0,65,0.00,,,0.00,WUHU216HW,2013-04-25 05:07:00,
2013-04-24 22:12:00,57.6,45.9,29.92,North,0,0.0,0.0,65,0.00,,,0.00,WUHU216HW,2013-04-25 05:12:00,
2013-04-24 22:17:00,57.4,46.1,29.92,North,0,0.0,0.0,66,0.00,,,0.00,WUHU216HW,2013-04-25 05:17:00,
2013-04-24 22:22:00,57.2,45.9,29.92,North,0,0.0,0.0,66,0.00,,,0.00,WUHU216HW,2013-04-25 05:22:00,
2013-04-24 22:28:00,57.2,45.9,29.92,North,0,0.0,0.0,66,0.00,,,0.00,WUHU216HW,2013-04-25 05:28:00,
2013-04-24 22:33:00,56.9,46.0,29.92,North,0,0.0,0.0,67,0.00,,,0.00,WUHU216HW,2013-04-25 05:33:00,
2013-04-24 22:38:00,56.9,46.0,29.92,North,0,0.0,0.0,67,0.00,,,0.00,WUHU216HW,2013-04-25 05:38:00,
2013-04-24 22:43:00,56.7,45.8,29.92,North,0,0.0,0.0,67,0.00,,,0.00,WUHU216HW,2013-04-25 05:43:00,
2013-04-24 22:48:00,56.5,45.6,29.92,North,0,0.0,0.0,67,0.00,,,0.00,WUHU216HW,2013-04-25 05:48:00,
2013-04-24 22:53:00,56.3,45.9,29.92,North,0,0.0,0.0,68,0.00,,,0.00,WUHU216HW,2013-04-25 05:53:00,
2013-04-24 22:58:00,56.2,45.7,29.92,North,0,0.0,0.0,68,0.00,,,0.00,WUHU216HW,2013-04-25 05:58:00,
2013-04-24 23:03:00,56.2,45.7,29.92,North,0,0.0,0.0,68,0.00,,,0.00,WUHU216HW,2013-04-25 06:03:00,
2013-04-24 23:08:00,56.0,45.5,29.92,North,0,0.0,0.0,68,0.00,,,0.00,WUHU216HW,2013-04-25 06:08:00,
2013-04-24 23:13:00,55.8,45.4,29.92,North,0,0.0,0.0,68,0.00,,,0.00,WUHU216HW,2013-04-25 06:13:00,
2013-04-24 23:18:00,55.8,45.8,29.92,North,0,0.0,0.0,69,0.00,,,0.00,WUHU216HW,2013-04-25 06:18:00,
2013-04-24 23:23:00,55.6,45.6,29.93,North,0,0.0,0.0,69,0.00,,,0.00,WUHU216HW,2013-04-25 06:23:00,
2013-04-24 23:28:00,55.4,45.5,29.92,North,0,0.0,0.0,69,0.00,,,0.00,WUHU216HW,2013-04-25 06:28:00,
2013-04-24 23:33:00,55.4,45.5,29.93,North,0,0.0,0.0,69,0.00,,,0.00,WUHU216HW,2013-04-25 06:33:00,
2013-04-24 23:38:00,55.3,45.3,29.92,North,0,0.0,0.0,69,0.00,,,0.00,WUHU216HW,2013-04-25 06:38:00,
2013-04-24 23:43:00,55.3,45.3,29.92,North,0,0.0,0.0,69,0.00,,,0.00,WUHU216HW,2013-04-25 06:43:00,
2013-04-24 23:48:00,55.1,45.5,29.92,North,0,0.0,0.0,70,0.00,,,0.00,WUHU216HW,2013-04-25 06:48:00,
2013-04-24 23:53:00,55.1,45.5,29.92,North,0,0.0,0.0,70,0.00,,,0.00,WUHU216HW,2013-04-25 06:53:00,
2013-04-24 23:58:00,54.9,45.4,29.93,North,0,0.0,0.0,70,0.00,,,0.00,WUHU216HW,2013-04-25 06:58:00,